createdAt,value
2022-08-18T00:00:25.078Z,1.50
2022-08-18T00:01:25.106Z,1.50
2022-08-18T00:02:30.006Z,1.70
2022-08-18T00:03:53.410Z,1.70
2022-08-18T00:04:35.665Z,1.40
2022-08-18T00:05:25.145Z,1.70
2022-08-18T00:06:27.114Z,1.50
2022-08-18T00:07:25.180Z,1.80
2022-08-18T00:08:25.195Z,1.40
2022-08-18T00:09:28.902Z,1.40
2022-08-18T00:10:25.225Z,1.30
2022-08-18T00:11:25.237Z,1.40
2022-08-18T00:12:25.251Z,1.50
2022-08-18T00:13:25.278Z,1.50
2022-08-18T00:14:25.283Z,1.50
2022-08-18T00:15:25.298Z,1.40
2022-08-18T00:16:25.314Z,1.40
2022-08-18T00:17:25.326Z,1.30
2022-08-18T00:18:25.343Z,1.50
2022-08-18T00:19:45.491Z,1.40
2022-08-18T00:20:25.373Z,1.20
2022-08-18T00:21:25.386Z,1.50
2022-08-18T00:22:25.407Z,1.70
2022-08-18T00:23:25.418Z,1.20
2022-08-18T00:24:25.427Z,1.20
2022-08-18T00:25:25.445Z,1.40
2022-08-18T00:26:25.463Z,1.40
2022-08-18T00:27:28.386Z,1.70
2022-08-18T00:28:25.493Z,1.40
2022-08-18T00:29:25.510Z,1.60
2022-08-18T00:30:25.525Z,1.30
2022-08-18T00:31:25.534Z,1.60
2022-08-18T00:32:25.551Z,1.50
2022-08-18T00:33:25.563Z,1.60
2022-08-18T00:34:25.580Z,1.70
2022-08-18T00:35:25.593Z,1.50
2022-08-18T00:36:25.613Z,1.70
2022-08-18T00:37:25.627Z,1.60
2022-08-18T00:38:25.780Z,1.50
2022-08-18T00:39:25.655Z,1.50
2022-08-18T00:40:25.764Z,1.70
2022-08-18T00:41:25.681Z,1.30
2022-08-18T00:42:27.309Z,1.40
2022-08-18T00:43:25.719Z,1.40
2022-08-18T00:44:25.727Z,1.50
2022-08-18T00:45:25.743Z,1.60
2022-08-18T00:46:25.761Z,1.60
2022-08-18T00:47:33.135Z,1.60
2022-08-18T00:48:25.788Z,1.60
2022-08-18T00:49:25.804Z,1.80
2022-08-18T00:50:25.814Z,1.70
2022-08-18T00:51:25.830Z,1.60
2022-08-18T00:52:25.844Z,1.60
2022-08-18T00:53:25.861Z,1.80
2022-08-18T00:54:25.876Z,1.60
2022-08-18T00:55:26.414Z,2.10
2022-08-18T00:56:25.905Z,1.80
2022-08-18T00:57:26.022Z,1.60
2022-08-18T00:58:25.939Z,1.80
2022-08-18T00:59:25.947Z,1.80
2022-08-18T01:00:26.103Z,1.90
2022-08-18T01:01:26.069Z,2.60
2022-08-18T01:02:25.994Z,1.90
2022-08-18T01:03:26.005Z,2.10
2022-08-18T01:04:26.026Z,3.80
2022-08-18T01:05:26.040Z,2.10
2022-08-18T01:06:26.052Z,1.90
2022-08-18T01:07:26.074Z,1.70
2022-08-18T01:08:28.559Z,1.80
2022-08-18T01:09:26.103Z,1.70
2022-08-18T01:10:26.120Z,1.90
2022-08-18T01:11:26.232Z,1.70
2022-08-18T01:12:45.575Z,1.70
2022-08-18T01:13:26.167Z,1.90
2022-08-18T01:14:26.172Z,2.20
2022-08-18T01:15:29.116Z,1.50
2022-08-18T01:16:26.300Z,1.50
2022-08-18T01:17:26.219Z,1.40
2022-08-18T01:18:26.231Z,1.70
2022-08-18T01:19:26.250Z,1.50
2022-08-18T01:20:26.267Z,1.80
2022-08-18T01:21:26.275Z,1.50
2022-08-18T01:22:26.296Z,1.30
2022-08-18T01:23:26.310Z,1.50
2022-08-18T01:24:26.322Z,1.60
2022-08-18T01:25:26.562Z,1.30
2022-08-18T01:26:26.352Z,1.10
2022-08-18T01:27:26.373Z,1.40
2022-08-18T01:28:26.378Z,1.30
2022-08-18T01:29:26.395Z,1.40
2022-08-18T01:30:26.411Z,1.30
2022-08-18T01:31:26.433Z,1.30
2022-08-18T01:32:26.467Z,1.20
2022-08-18T01:33:26.733Z,1.10
2022-08-18T01:34:26.477Z,1.30
2022-08-18T01:35:26.483Z,1.40
2022-08-18T01:36:26.497Z,1.30
2022-08-18T01:37:26.523Z,1.50
2022-08-18T01:38:26.530Z,1.10
2022-08-18T01:41:12.876Z,1.20
2022-08-18T01:41:22.244Z,1.20
2022-08-18T01:41:30.282Z,1.20
2022-08-18T01:42:26.587Z,1.40
2022-08-18T01:43:26.606Z,1.00
2022-08-18T01:44:26.618Z,1.10
2022-08-18T01:45:26.630Z,1.20
2022-08-18T01:46:26.650Z,1.30
2022-08-18T01:47:26.658Z,1.20
2022-08-18T01:48:26.674Z,1.00
2022-08-18T01:49:26.693Z,1.20
2022-08-18T01:50:26.701Z,1.20
2022-08-18T01:51:40.025Z,1.70
2022-08-18T01:52:26.760Z,1.30
2022-08-18T01:53:26.850Z,1.20
2022-08-18T01:54:26.767Z,1.30
2022-08-18T01:55:26.780Z,1.50
2022-08-18T01:56:26.795Z,1.10
2022-08-18T01:57:26.809Z,1.20
2022-08-18T01:58:31.057Z,1.40
2022-08-18T01:59:26.837Z,1.40
2022-08-18T02:00:26.848Z,1.30
2022-08-18T02:01:36.539Z,1.30
2022-08-18T02:02:27.077Z,1.30
2022-08-18T02:03:26.895Z,1.40
2022-08-18T02:04:36.050Z,1.50
2022-08-18T02:05:26.931Z,1.70
2022-08-18T02:06:33.575Z,1.50
2022-08-18T02:07:32.609Z,1.50
2022-08-18T02:08:28.164Z,1.50
2022-08-18T02:09:26.980Z,1.60
2022-08-18T02:10:26.995Z,1.60
2022-08-18T02:11:27.008Z,1.70
2022-08-18T02:12:27.026Z,1.90
2022-08-18T02:13:27.040Z,2.20
2022-08-18T02:14:27.508Z,1.90
2022-08-18T02:15:27.065Z,1.90
2022-08-18T02:16:27.094Z,1.90
2022-08-18T02:17:27.093Z,1.60
2022-08-18T02:18:46.884Z,1.50
2022-08-18T02:19:27.123Z,1.50
2022-08-18T02:20:27.139Z,1.50
2022-08-18T02:21:27.159Z,1.70
2022-08-18T02:22:27.172Z,1.60
2022-08-18T02:23:27.184Z,1.70
2022-08-18T02:24:27.195Z,2.00
2022-08-18T02:25:27.213Z,2.10
2022-08-18T02:26:27.237Z,2.00
2022-08-18T02:27:27.246Z,2.10
2022-08-18T02:28:30.601Z,2.10
2022-08-18T02:29:27.271Z,1.90
2022-08-18T02:30:27.290Z,1.80
2022-08-18T02:31:27.302Z,2.30
2022-08-18T02:32:27.312Z,2.50
2022-08-18T02:33:27.327Z,2.10
2022-08-18T02:34:27.339Z,2.10
2022-08-18T02:35:27.356Z,1.40
2022-08-18T02:36:27.378Z,1.40
2022-08-18T02:37:27.394Z,1.50
2022-08-18T02:38:27.400Z,10.30
2022-08-18T02:39:27.471Z,13.90
2022-08-18T02:40:27.426Z,8.60
2022-08-18T02:41:27.443Z,8.80
2022-08-18T02:42:27.454Z,9.30
2022-08-18T02:43:27.481Z,8.00
2022-08-18T02:44:27.486Z,9.40
2022-08-18T02:45:27.499Z,8.20
2022-08-18T02:46:30.130Z,5.90
2022-08-18T02:47:33.010Z,8.50
2022-08-18T02:48:27.538Z,3.10
2022-08-18T02:49:27.557Z,2.10
2022-08-18T02:50:27.617Z,2.00
2022-08-18T02:51:27.603Z,2.30
2022-08-18T02:52:27.594Z,1.80
2022-08-18T02:53:27.612Z,1.60
2022-08-18T02:54:27.627Z,1.50
2022-08-18T02:55:27.637Z,1.30
2022-08-18T02:56:32.829Z,1.10
2022-08-18T02:57:27.668Z,1.30
2022-08-18T02:58:31.828Z,1.20
2022-08-18T02:59:27.982Z,1.50
2022-08-18T03:00:27.707Z,1.40
2022-08-18T03:01:27.799Z,1.80
2022-08-18T03:02:27.734Z,1.80
2022-08-18T03:03:27.754Z,2.00
2022-08-18T03:04:29.526Z,1.90
2022-08-18T03:05:27.776Z,2.10
2022-08-18T03:06:27.787Z,2.10
2022-08-18T03:07:27.802Z,2.10
2022-08-18T03:08:27.814Z,2.10
2022-08-18T03:09:27.828Z,2.40
2022-08-18T03:10:32.386Z,2.10
2022-08-18T03:11:27.858Z,2.70
2022-08-18T03:12:27.881Z,1.90
2022-08-18T03:13:27.887Z,1.50
2022-08-18T03:14:27.900Z,2.20
2022-08-18T03:15:28.119Z,1.90
2022-08-18T03:16:27.925Z,1.90
2022-08-18T03:17:27.941Z,1.80
2022-08-18T03:18:27.956Z,1.50
2022-08-18T03:19:27.967Z,1.60
2022-08-18T03:20:30.148Z,1.60
2022-08-18T03:21:27.995Z,1.70
2022-08-18T03:22:32.387Z,1.80
2022-08-18T03:23:30.231Z,1.80
2022-08-18T03:24:28.048Z,2.00
2022-08-18T03:25:28.050Z,1.80
2022-08-18T03:26:28.066Z,1.90
2022-08-18T03:27:28.084Z,1.80
2022-08-18T03:28:28.091Z,2.00
2022-08-18T03:29:32.369Z,1.90
2022-08-18T03:30:28.116Z,1.60
2022-08-18T03:31:28.264Z,1.90
2022-08-18T03:32:28.148Z,2.00
2022-08-18T03:33:28.163Z,2.00
2022-08-18T03:34:28.180Z,1.80
2022-08-18T03:35:28.190Z,1.90
2022-08-18T03:36:28.202Z,2.20
2022-08-18T03:37:28.220Z,2.20
2022-08-18T03:38:28.235Z,2.00
2022-08-18T03:39:28.370Z,2.00
2022-08-18T03:40:28.261Z,2.10
2022-08-18T03:41:56.992Z,1.80
2022-08-18T03:42:28.290Z,2.10
2022-08-18T03:43:50.824Z,1.70
2022-08-18T03:44:28.315Z,1.70
2022-08-18T03:45:28.328Z,1.90
2022-08-18T03:46:28.344Z,1.80
2022-08-18T03:47:28.360Z,2.00
2022-08-18T03:48:28.371Z,2.10
2022-08-18T03:49:28.394Z,2.00
2022-08-18T03:50:28.399Z,1.80
2022-08-18T03:51:28.413Z,2.00
2022-08-18T03:52:28.429Z,1.70
2022-08-18T03:53:28.445Z,1.80
2022-08-18T03:54:28.452Z,1.80
2022-08-18T03:55:28.476Z,1.90
2022-08-18T03:56:28.476Z,1.70
2022-08-18T03:57:28.494Z,1.80
2022-08-18T03:58:28.514Z,1.70
2022-08-18T03:59:28.550Z,1.70
2022-08-18T04:00:28.538Z,2.00
2022-08-18T04:01:28.644Z,2.30
2022-08-18T04:02:28.569Z,8.70
2022-08-18T04:03:28.580Z,7.90
2022-08-18T04:04:28.729Z,5.00
2022-08-18T04:05:28.607Z,4.50
2022-08-18T04:06:29.905Z,3.40
2022-08-18T04:07:28.636Z,6.00
2022-08-18T04:08:28.652Z,3.00
2022-08-18T04:09:28.664Z,2.50
2022-08-18T04:10:28.681Z,2.40
2022-08-18T04:11:28.690Z,2.40
2022-08-18T04:12:28.706Z,2.20
2022-08-18T04:13:28.748Z,3.10
2022-08-18T04:14:28.738Z,4.50
2022-08-18T04:15:28.746Z,3.00
2022-08-18T04:16:28.771Z,4.10
2022-08-18T04:17:28.779Z,3.10
2022-08-18T04:18:28.789Z,2.50
2022-08-18T04:19:28.804Z,3.00
2022-08-18T04:20:28.822Z,4.00
2022-08-18T04:21:28.835Z,3.60
2022-08-18T04:22:28.950Z,3.70
2022-08-18T04:23:28.865Z,3.10
2022-08-18T04:24:29.749Z,3.90
2022-08-18T04:25:32.750Z,17.60
2022-08-18T04:26:28.906Z,25.80
2022-08-18T04:27:28.925Z,14.50
2022-08-18T04:28:28.934Z,6.10
2022-08-18T04:29:28.952Z,4.10
2022-08-18T04:30:28.961Z,3.00
2022-08-18T04:31:28.982Z,2.40
2022-08-18T04:32:30.000Z,2.40
2022-08-18T04:33:29.000Z,2.40
2022-08-18T04:34:29.122Z,2.60
2022-08-18T04:35:29.150Z,3.20
2022-08-18T04:36:29.052Z,3.80
2022-08-18T04:37:29.060Z,3.10
2022-08-18T04:38:29.074Z,3.30
2022-08-18T04:39:29.188Z,2.90
2022-08-18T04:40:29.188Z,2.80
2022-08-18T04:41:29.119Z,3.40
2022-08-18T04:42:29.136Z,3.20
2022-08-18T04:43:29.143Z,3.10
2022-08-18T04:44:29.163Z,3.20
2022-08-18T04:45:29.181Z,3.20
2022-08-18T04:46:29.184Z,3.80
2022-08-18T04:47:29.197Z,3.70
2022-08-18T04:48:29.216Z,3.60
2022-08-18T04:49:29.224Z,3.20
2022-08-18T04:50:29.245Z,2.90
2022-08-18T04:52:34.540Z,2.60
2022-08-18T04:52:40.266Z,2.60
2022-08-18T04:53:29.288Z,2.10
2022-08-18T04:54:29.297Z,1.90
2022-08-18T04:55:29.313Z,2.10
2022-08-18T04:56:29.325Z,2.20
2022-08-18T04:57:29.350Z,2.20
2022-08-18T04:58:29.357Z,2.40
2022-08-18T04:59:29.375Z,2.40
2022-08-18T05:00:29.385Z,2.60
2022-08-18T05:01:29.476Z,2.50
2022-08-18T05:02:29.416Z,2.20
2022-08-18T05:03:29.428Z,2.30
2022-08-18T05:04:29.442Z,2.40
2022-08-18T05:05:29.454Z,2.70
2022-08-18T05:06:29.468Z,2.80
2022-08-18T05:07:29.482Z,2.50
2022-08-18T05:08:29.493Z,2.00
2022-08-18T05:09:29.510Z,2.50
2022-08-18T05:10:29.522Z,2.70
2022-08-18T05:11:29.537Z,2.40
2022-08-18T05:12:29.551Z,2.70
2022-08-18T05:13:29.563Z,2.50
2022-08-18T05:14:29.579Z,3.00
2022-08-18T05:15:42.137Z,2.60
2022-08-18T05:16:29.605Z,2.40
2022-08-18T05:17:31.074Z,2.60
2022-08-18T05:18:29.639Z,2.20
2022-08-18T05:19:29.649Z,2.60
2022-08-18T05:20:29.662Z,2.80
2022-08-18T05:21:29.689Z,2.30
2022-08-18T05:22:31.196Z,2.20
2022-08-18T05:23:29.705Z,2.30
2022-08-18T05:24:36.962Z,2.30
2022-08-18T05:25:29.743Z,2.30
2022-08-18T05:26:29.751Z,2.10
2022-08-18T05:27:29.763Z,2.30
2022-08-18T05:28:29.771Z,2.50
2022-08-18T05:29:30.000Z,2.10
2022-08-18T05:30:29.805Z,1.90
2022-08-18T05:31:29.816Z,2.20
2022-08-18T05:32:37.310Z,2.30
2022-08-18T05:33:29.896Z,2.20
2022-08-18T05:34:29.861Z,2.30
2022-08-18T05:35:29.873Z,2.40
2022-08-18T05:36:29.887Z,2.10
2022-08-18T05:37:29.899Z,2.20
2022-08-18T05:38:30.020Z,2.20
2022-08-18T05:39:30.015Z,2.50
2022-08-18T05:40:29.943Z,2.30
2022-08-18T05:41:29.967Z,2.40
2022-08-18T05:42:29.969Z,2.50
2022-08-18T05:43:29.985Z,2.40
2022-08-18T05:44:29.996Z,2.50
2022-08-18T05:45:30.012Z,2.30
2022-08-18T05:46:30.026Z,2.20
2022-08-18T05:47:30.058Z,2.20
2022-08-18T05:48:30.057Z,2.50
2022-08-18T05:49:30.067Z,2.60
2022-08-18T05:50:30.083Z,2.20
2022-08-18T05:51:30.121Z,2.30
2022-08-18T05:52:30.114Z,2.80
2022-08-18T05:53:30.126Z,3.70
2022-08-18T05:54:30.139Z,3.20
2022-08-18T05:55:30.149Z,2.90
2022-08-18T05:56:30.160Z,3.20
2022-08-18T05:57:30.182Z,3.20
2022-08-18T05:58:33.334Z,3.00
2022-08-18T05:59:30.205Z,2.80
2022-08-18T06:00:30.220Z,2.20
2022-08-18T06:01:30.260Z,2.50
2022-08-18T06:02:30.295Z,2.40
2022-08-18T06:03:30.513Z,2.50
2022-08-18T06:04:30.282Z,2.20
2022-08-18T06:05:30.299Z,2.40
2022-08-18T06:06:30.320Z,2.10
2022-08-18T06:07:33.397Z,2.40
2022-08-18T06:08:30.333Z,2.30
2022-08-18T06:09:30.347Z,2.20
2022-08-18T06:10:30.362Z,2.10
2022-08-18T06:11:30.373Z,2.20
2022-08-18T06:12:30.388Z,2.30
2022-08-18T06:13:30.405Z,2.30
2022-08-18T06:14:30.419Z,2.40
2022-08-18T06:15:30.432Z,2.20
2022-08-18T06:16:30.447Z,2.40
2022-08-18T06:17:30.461Z,2.10
2022-08-18T06:18:30.576Z,2.20
2022-08-18T06:19:30.485Z,1.90
2022-08-18T06:20:30.501Z,2.00
2022-08-18T06:21:30.517Z,2.20
2022-08-18T06:22:31.413Z,2.00
2022-08-18T06:23:30.542Z,2.30
2022-08-18T06:24:30.573Z,2.10
2022-08-18T06:25:30.573Z,1.90
2022-08-18T06:26:30.615Z,1.70
2022-08-18T06:27:30.605Z,2.40
2022-08-18T06:28:30.619Z,2.10
2022-08-18T06:29:30.625Z,2.20
2022-08-18T06:30:30.641Z,2.10
2022-08-18T06:31:30.658Z,2.70
2022-08-18T06:32:30.671Z,2.30
2022-08-18T06:33:30.689Z,2.10
2022-08-18T06:34:30.700Z,2.30
2022-08-18T06:35:30.714Z,2.10
2022-08-18T06:36:30.729Z,2.50
2022-08-18T06:37:30.747Z,2.20
2022-08-18T06:38:30.760Z,2.60
2022-08-18T06:39:30.830Z,2.30
2022-08-18T06:40:30.795Z,2.20
2022-08-18T06:41:40.625Z,2.00
2022-08-18T06:42:30.827Z,2.40
2022-08-18T06:43:30.831Z,2.30
2022-08-18T06:44:30.843Z,2.60
2022-08-18T06:45:33.866Z,1.90
2022-08-18T06:46:30.870Z,2.40
2022-08-18T06:47:30.888Z,2.60
2022-08-18T06:48:30.901Z,2.30
2022-08-18T06:49:30.914Z,2.40
2022-08-18T06:50:30.933Z,2.30
2022-08-18T06:51:30.962Z,2.20
2022-08-18T06:52:30.985Z,2.30
2022-08-18T06:53:30.974Z,2.30
2022-08-18T06:54:30.983Z,2.20
2022-08-18T06:55:31.001Z,1.80
2022-08-18T06:56:31.016Z,2.10
2022-08-18T06:57:31.049Z,2.00
2022-08-18T06:58:31.059Z,2.20
2022-08-18T06:59:31.062Z,2.00
2022-08-18T07:00:32.428Z,2.20
2022-08-18T07:01:31.165Z,1.70
2022-08-18T07:02:31.107Z,1.90
2022-08-18T07:03:31.120Z,1.90
2022-08-18T07:04:31.144Z,2.10
2022-08-18T07:05:31.153Z,2.00
2022-08-18T07:06:31.165Z,1.90
2022-08-18T07:07:40.447Z,1.90
2022-08-18T07:08:31.187Z,2.10
2022-08-18T07:09:31.205Z,2.10
2022-08-18T07:10:31.213Z,2.00
2022-08-18T07:11:31.231Z,1.90
2022-08-18T07:12:32.976Z,2.10
2022-08-18T07:13:31.261Z,2.20
2022-08-18T07:14:31.273Z,2.20
2022-08-18T07:15:31.285Z,2.50
2022-08-18T07:16:56.709Z,2.70
2022-08-18T07:17:43.132Z,2.50
2022-08-18T07:18:31.333Z,2.50
2022-08-18T07:19:31.342Z,2.50
2022-08-18T07:20:31.362Z,3.00
2022-08-18T07:21:31.374Z,2.90
2022-08-18T07:22:39.660Z,2.60
2022-08-18T07:23:31.404Z,2.50
2022-08-18T07:24:31.420Z,2.40
2022-08-18T07:25:31.434Z,2.90
2022-08-18T07:26:31.448Z,2.70
2022-08-18T07:27:31.461Z,3.10
2022-08-18T07:28:31.476Z,2.80
2022-08-18T07:29:31.493Z,2.50
2022-08-18T07:30:31.512Z,2.80
2022-08-18T07:31:31.519Z,2.40
2022-08-18T07:32:31.538Z,2.40
2022-08-18T07:33:31.550Z,2.50
2022-08-18T07:34:31.564Z,2.30
2022-08-18T07:35:31.578Z,1.80
2022-08-18T07:36:31.595Z,2.10
2022-08-18T07:37:31.606Z,2.00
2022-08-18T07:38:42.495Z,2.00
2022-08-18T07:39:31.747Z,2.80
2022-08-18T07:40:31.659Z,3.10
2022-08-18T07:41:31.665Z,4.30
2022-08-18T07:42:33.184Z,4.50
2022-08-18T07:43:31.699Z,4.10
2022-08-18T07:44:31.710Z,5.90
2022-08-18T07:45:31.725Z,4.00
2022-08-18T07:46:31.738Z,3.50
2022-08-18T07:47:31.754Z,3.40
2022-08-18T07:48:38.798Z,3.10
2022-08-18T07:49:31.787Z,2.90
2022-08-18T07:50:58.565Z,3.00
2022-08-18T07:51:36.973Z,3.40
2022-08-18T07:52:36.142Z,3.00
2022-08-18T07:53:31.847Z,2.90
2022-08-18T07:54:48.965Z,2.60
2022-08-18T07:55:31.868Z,2.70
2022-08-18T07:56:31.890Z,2.50
2022-08-18T07:57:31.904Z,2.20
2022-08-18T07:58:31.915Z,2.50
2022-08-18T07:59:31.930Z,2.60
2022-08-18T08:01:00.737Z,2.50
2022-08-18T08:01:33.743Z,2.50
2022-08-18T08:02:31.976Z,2.30
2022-08-18T08:03:32.018Z,2.60
2022-08-18T08:04:32.005Z,2.40
2022-08-18T08:05:32.022Z,2.10
2022-08-18T08:06:32.035Z,2.10
2022-08-18T08:07:32.048Z,2.40
2022-08-18T08:08:32.064Z,2.50
2022-08-18T08:09:32.080Z,2.40
2022-08-18T08:10:32.092Z,2.30
2022-08-18T08:11:32.113Z,2.60
2022-08-18T08:12:32.120Z,2.80
2022-08-18T08:13:53.966Z,3.10
2022-08-18T08:14:32.153Z,2.80
2022-08-18T08:15:32.166Z,3.00
2022-08-18T08:16:32.182Z,2.80
2022-08-18T08:17:32.196Z,2.80
2022-08-18T08:18:32.209Z,2.50
2022-08-18T08:19:58.952Z,2.60
2022-08-18T08:20:32.652Z,2.80
2022-08-18T08:21:32.272Z,2.50
2022-08-18T08:22:32.282Z,2.90
2022-08-18T08:23:32.295Z,2.90
2022-08-18T08:24:32.301Z,2.50
2022-08-18T08:25:46.285Z,3.00
2022-08-18T08:26:32.334Z,2.60
2022-08-18T08:27:32.360Z,2.90
2022-08-18T08:28:32.374Z,3.00
2022-08-18T08:29:32.395Z,2.90
2022-08-18T08:30:32.490Z,2.70
2022-08-18T08:31:36.646Z,2.40
2022-08-18T08:32:32.422Z,2.90
2022-08-18T08:33:32.435Z,3.10
2022-08-18T08:34:32.466Z,2.80
2022-08-18T08:35:49.156Z,2.60
2022-08-18T08:36:32.478Z,2.30
2022-08-18T08:37:32.501Z,2.50
2022-08-18T08:38:43.026Z,2.30
2022-08-18T08:39:32.549Z,2.60
2022-08-18T08:40:32.537Z,2.40
2022-08-18T08:41:32.556Z,2.40
2022-08-18T08:42:35.369Z,2.00
2022-08-18T08:43:32.583Z,2.30
2022-08-18T08:44:32.618Z,2.30
2022-08-18T08:45:32.611Z,2.10
2022-08-18T08:46:32.629Z,2.30
2022-08-18T08:47:32.667Z,2.20
2022-08-18T08:48:32.660Z,2.40
2022-08-18T08:49:32.673Z,2.10
2022-08-18T08:50:32.690Z,2.30
2022-08-18T08:51:32.704Z,2.30
2022-08-18T08:52:32.719Z,2.10
2022-08-18T08:53:32.736Z,2.40
2022-08-18T08:54:32.749Z,2.60
2022-08-18T08:55:32.767Z,2.50
2022-08-18T08:56:32.778Z,2.30
2022-08-18T08:57:32.803Z,2.50
2022-08-18T08:58:32.813Z,2.40
2022-08-18T08:59:32.824Z,2.40
2022-08-18T09:00:32.841Z,2.30
2022-08-18T09:01:32.928Z,2.80
2022-08-18T09:02:47.202Z,2.60
2022-08-18T09:03:32.886Z,2.90
2022-08-18T09:04:32.931Z,2.60
2022-08-18T09:05:32.921Z,2.30
2022-08-18T09:06:32.936Z,2.90
2022-08-18T09:07:35.738Z,3.50
2022-08-18T09:08:32.985Z,3.20
2022-08-18T09:09:32.980Z,3.30
2022-08-18T09:10:32.996Z,2.80
2022-08-18T09:11:33.008Z,3.10
2022-08-18T09:12:33.034Z,3.20
2022-08-18T09:13:33.039Z,3.30
2022-08-18T09:14:33.060Z,3.50
2022-08-18T09:15:33.068Z,2.80
2022-08-18T09:16:33.089Z,3.20
2022-08-18T09:17:34.231Z,3.10
2022-08-18T09:18:33.119Z,2.90
2022-08-18T09:19:33.137Z,3.00
2022-08-18T09:20:33.152Z,2.90
2022-08-18T09:21:33.173Z,2.80
2022-08-18T09:22:33.182Z,3.50
2022-08-18T09:23:33.195Z,3.70
2022-08-18T09:24:33.218Z,3.80
2022-08-18T09:25:33.236Z,4.10
2022-08-18T09:26:36.222Z,4.10
2022-08-18T09:27:48.531Z,3.70
2022-08-18T09:28:33.284Z,3.20
2022-08-18T09:29:33.293Z,3.60
2022-08-18T09:30:33.310Z,3.60
2022-08-18T09:31:33.326Z,4.10
2022-08-18T09:32:33.340Z,5.00
2022-08-18T09:33:33.359Z,3.60
2022-08-18T09:34:33.369Z,3.60
2022-08-18T09:35:33.391Z,3.80
2022-08-18T09:36:33.403Z,3.80
2022-08-18T09:37:33.424Z,3.30
2022-08-18T09:38:33.439Z,4.00
2022-08-18T09:39:33.534Z,4.50
2022-08-18T09:41:33.493Z,3.50
2022-08-18T09:42:33.499Z,3.70
2022-08-18T09:43:33.517Z,3.40
2022-08-18T09:44:33.530Z,3.60
2022-08-18T09:45:34.297Z,3.80
2022-08-18T09:46:33.561Z,3.30
2022-08-18T09:47:33.591Z,4.60
2022-08-18T09:48:33.599Z,4.30
2022-08-18T09:49:38.040Z,4.40
2022-08-18T09:50:33.628Z,4.50
2022-08-18T09:51:33.652Z,4.00
2022-08-18T09:52:33.663Z,5.30
2022-08-18T09:53:33.778Z,5.10
2022-08-18T09:54:33.697Z,4.80
2022-08-18T09:55:33.709Z,5.40
2022-08-18T09:56:33.730Z,4.40
2022-08-18T09:57:43.785Z,4.20
2022-08-18T09:58:33.764Z,4.20
2022-08-18T09:59:34.462Z,4.20
2022-08-18T10:00:33.798Z,3.90
2022-08-18T10:01:33.820Z,4.10
2022-08-18T10:02:33.843Z,4.20
2022-08-18T10:03:33.849Z,4.60
2022-08-18T10:04:33.863Z,3.70
2022-08-18T10:05:33.874Z,3.60
2022-08-18T10:06:33.883Z,3.40
2022-08-18T10:07:38.831Z,3.90
2022-08-18T10:08:33.919Z,3.20
2022-08-18T10:09:36.542Z,3.60
2022-08-18T10:11:34.066Z,3.60
2022-08-18T10:12:33.981Z,4.00
2022-08-18T10:13:34.006Z,3.80
2022-08-18T10:14:34.024Z,4.00
2022-08-18T10:15:34.392Z,3.30
2022-08-18T10:17:34.064Z,2.60
2022-08-18T10:18:34.081Z,2.40
2022-08-18T10:19:39.958Z,2.00
2022-08-18T10:20:34.112Z,2.30
2022-08-18T10:21:34.126Z,2.30
2022-08-18T10:22:34.143Z,3.20
2022-08-18T10:23:42.807Z,3.70
2022-08-18T10:24:36.077Z,3.70
2022-08-18T10:25:34.188Z,3.70
2022-08-18T10:26:34.205Z,3.40
2022-08-18T10:27:34.218Z,3.70
2022-08-18T10:28:34.236Z,4.00
2022-08-18T10:29:34.256Z,3.20
2022-08-18T10:30:56.229Z,3.30
2022-08-18T10:31:34.284Z,3.50
2022-08-18T10:32:34.302Z,3.70
2022-08-18T10:33:34.317Z,3.40
2022-08-18T10:34:34.352Z,3.20
2022-08-18T10:35:34.346Z,3.20
2022-08-18T10:36:34.360Z,3.00
2022-08-18T10:37:34.376Z,2.90
2022-08-18T10:38:34.393Z,3.40
2022-08-18T10:39:34.500Z,3.50
2022-08-18T10:40:34.424Z,3.60
2022-08-18T10:41:34.443Z,3.70
2022-08-18T10:42:34.457Z,3.20
2022-08-18T10:43:54.991Z,3.10
2022-08-18T10:44:34.489Z,2.90
2022-08-18T10:45:34.505Z,3.40
2022-08-18T10:46:38.127Z,3.60
2022-08-18T10:47:34.536Z,3.90
2022-08-18T10:48:34.548Z,3.60
2022-08-18T10:49:34.570Z,3.40
2022-08-18T10:50:34.580Z,3.40
2022-08-18T10:51:37.784Z,3.50
2022-08-18T10:52:35.675Z,4.20
2022-08-18T10:53:38.971Z,3.30
2022-08-18T10:54:34.652Z,3.70
2022-08-18T10:56:34.675Z,3.70
2022-08-18T10:57:34.694Z,4.20
2022-08-18T10:58:34.721Z,3.90
2022-08-18T10:59:41.403Z,3.80
2022-08-18T11:00:34.742Z,4.10
2022-08-18T11:01:35.558Z,3.30
2022-08-18T11:02:34.777Z,4.00
2022-08-18T11:03:55.910Z,3.80
2022-08-18T11:04:37.090Z,3.60
2022-08-18T11:05:34.823Z,3.70
2022-08-18T11:06:34.843Z,3.60
2022-08-18T11:07:34.916Z,3.70
2022-08-18T11:08:36.891Z,3.80
2022-08-18T11:09:34.893Z,3.90
2022-08-18T11:10:50.585Z,3.60
2022-08-18T11:11:39.286Z,3.50
2022-08-18T11:12:34.935Z,3.70
2022-08-18T11:13:34.954Z,3.80
2022-08-18T11:14:34.971Z,3.90
2022-08-18T11:15:38.821Z,3.40
2022-08-18T11:16:34.997Z,4.20
2022-08-18T11:17:35.015Z,3.80
2022-08-18T11:19:35.051Z,3.40
2022-08-18T11:20:35.065Z,3.60
2022-08-18T11:21:42.395Z,3.70
2022-08-18T11:22:35.689Z,3.60
2022-08-18T11:23:35.109Z,3.90
2022-08-18T11:24:35.133Z,3.70
2022-08-18T11:25:35.151Z,3.90
2022-08-18T11:26:35.166Z,3.80
2022-08-18T11:27:35.172Z,4.10
2022-08-18T11:28:38.960Z,3.90
2022-08-18T11:29:35.208Z,3.90
2022-08-18T11:30:35.797Z,3.60
2022-08-18T11:31:35.241Z,3.50
2022-08-18T11:32:35.257Z,3.60
2022-08-18T11:33:37.560Z,3.60
2022-08-18T11:34:35.290Z,3.10
2022-08-18T11:35:35.306Z,3.40
2022-08-18T11:36:35.329Z,2.70
2022-08-18T11:38:35.358Z,2.80
2022-08-18T11:41:48.582Z,2.90
2022-08-18T11:42:35.420Z,3.20
2022-08-18T11:43:39.099Z,2.80
2022-08-18T11:44:35.450Z,2.70
2022-08-18T11:45:35.466Z,2.70
2022-08-18T11:46:35.478Z,2.60
2022-08-18T11:47:35.494Z,2.70
2022-08-18T11:49:35.526Z,2.70
2022-08-18T11:50:35.542Z,2.90
2022-08-18T11:51:35.609Z,2.60
2022-08-18T11:52:35.582Z,2.40
2022-08-18T11:53:35.592Z,2.50
2022-08-18T11:54:35.727Z,3.20
2022-08-18T11:55:35.618Z,2.80
2022-08-18T11:56:38.573Z,2.80
2022-08-18T11:57:35.652Z,2.70
2022-08-18T11:58:35.675Z,3.40
2022-08-18T11:59:54.840Z,3.40
2022-08-18T12:00:35.710Z,2.80
2022-08-18T12:01:41.565Z,3.10
2022-08-18T12:02:35.734Z,3.20
2022-08-18T12:03:35.748Z,3.30
2022-08-18T12:04:35.779Z,3.10
2022-08-18T12:05:45.949Z,3.10
2022-08-18T12:06:35.807Z,3.50
2022-08-18T12:07:35.838Z,3.10
2022-08-18T12:08:58.038Z,2.90
2022-08-18T12:10:35.859Z,3.20
2022-08-18T12:11:35.878Z,3.00
2022-08-18T12:12:36.021Z,3.10
2022-08-18T12:13:35.906Z,2.90
2022-08-18T12:14:35.923Z,3.50
2022-08-18T12:15:47.338Z,3.20
2022-08-18T12:16:35.950Z,3.20
2022-08-18T12:17:35.975Z,3.00
2022-08-18T12:18:35.985Z,2.80
2022-08-18T12:19:36.000Z,3.20
2022-08-18T12:20:36.025Z,2.80
2022-08-18T12:21:36.039Z,2.70
2022-08-18T12:22:36.049Z,2.70
2022-08-18T12:23:38.942Z,2.50
2022-08-18T12:24:39.101Z,2.80
2022-08-18T12:25:36.097Z,2.70
2022-08-18T12:26:39.020Z,2.60
2022-08-18T12:27:36.133Z,2.60
2022-08-18T12:28:36.142Z,2.60
2022-08-18T12:30:36.169Z,2.60
2022-08-18T12:31:42.596Z,2.70
2022-08-18T12:32:49.772Z,2.60
2022-08-18T12:33:48.239Z,2.80
2022-08-18T12:34:36.238Z,2.90
2022-08-18T12:35:36.254Z,2.70
2022-08-18T12:36:36.271Z,2.90
2022-08-18T12:37:59.106Z,2.70
2022-08-18T12:38:36.485Z,2.60
2022-08-18T12:39:36.345Z,2.50
2022-08-18T12:40:36.334Z,2.70
2022-08-18T12:41:36.347Z,2.70
2022-08-18T12:42:36.367Z,2.80
2022-08-18T12:43:36.380Z,2.80
2022-08-18T12:44:36.394Z,2.60
2022-08-18T12:45:37.992Z,2.70
2022-08-18T12:46:36.436Z,2.90
2022-08-18T12:47:36.440Z,2.50
2022-08-18T12:48:36.456Z,2.40
2022-08-18T12:49:36.473Z,2.80
2022-08-18T12:50:50.148Z,2.70
2022-08-18T12:51:36.502Z,2.80
2022-08-18T12:52:36.522Z,2.60
2022-08-18T12:53:38.077Z,2.60
2022-08-18T12:54:36.550Z,2.60
2022-08-18T12:55:37.707Z,2.60
2022-08-18T12:56:36.587Z,2.60
2022-08-18T12:58:36.634Z,2.70
2022-08-18T12:59:37.528Z,3.10
2022-08-18T13:00:36.641Z,2.70
2022-08-18T13:01:36.827Z,2.70
2022-08-18T13:02:36.778Z,2.90
2022-08-18T13:03:37.032Z,2.90
2022-08-18T13:04:36.754Z,2.60
2022-08-18T13:05:37.133Z,2.70
2022-08-18T13:06:36.738Z,2.70
2022-08-18T13:07:36.799Z,2.80
2022-08-18T13:08:47.808Z,2.50
2022-08-18T13:09:52.669Z,2.90
2022-08-18T13:10:45.456Z,3.00
2022-08-18T13:11:36.820Z,2.80
2022-08-18T13:12:36.832Z,2.90
2022-08-18T13:14:36.862Z,2.80
2022-08-18T13:15:36.881Z,3.30
2022-08-18T13:16:53.279Z,3.40
2022-08-18T13:17:36.910Z,3.30
2022-08-18T13:18:36.923Z,2.80
2022-08-18T13:19:36.935Z,3.00
2022-08-18T13:20:36.957Z,2.80
2022-08-18T13:21:40.885Z,3.20
2022-08-18T13:22:36.988Z,3.40
2022-08-18T13:23:36.998Z,3.30
2022-08-18T13:24:37.024Z,3.20
2022-08-18T13:25:39.727Z,3.30
2022-08-18T13:26:37.047Z,3.10
2022-08-18T13:27:37.562Z,3.30
2022-08-18T13:28:56.581Z,2.90
2022-08-18T13:29:37.096Z,2.90
2022-08-18T13:30:37.109Z,2.90
2022-08-18T13:31:37.122Z,3.00